createdAt,value
2019-05-01T00:00:31.377Z,8.76
2019-05-01T00:01:31.382Z,8.64
2019-05-01T00:02:31.351Z,8.61
2019-05-01T00:03:31.338Z,8.63
2019-05-01T00:04:31.326Z,8.57
2019-05-01T00:05:31.319Z,8.54
2019-05-01T00:06:31.330Z,8.52
2019-05-01T00:07:31.309Z,8.45
2019-05-01T00:08:31.287Z,8.50
2019-05-01T00:09:31.278Z,8.52
2019-05-01T00:10:31.264Z,8.54
2019-05-01T00:11:31.261Z,8.50
2019-05-01T00:12:31.250Z,8.43
2019-05-01T00:13:31.233Z,8.47
2019-05-01T00:14:31.226Z,8.43
2019-05-01T00:15:31.216Z,8.43
2019-05-01T00:16:31.206Z,8.45
2019-05-01T00:17:31.207Z,8.43
2019-05-01T00:18:31.181Z,8.45
2019-05-01T00:19:31.172Z,8.39
2019-05-01T00:20:31.166Z,8.34
2019-05-01T00:21:31.158Z,8.39
2019-05-01T00:22:31.154Z,8.34
2019-05-01T00:23:31.167Z,8.37
2019-05-01T00:24:31.125Z,8.32
2019-05-01T00:25:31.107Z,8.25
2019-05-01T00:26:31.097Z,8.27
2019-05-01T00:27:31.120Z,8.21
2019-05-01T00:28:31.076Z,8.14
2019-05-01T00:29:31.067Z,8.20
2019-05-01T00:30:31.059Z,8.07
2019-05-01T00:31:31.059Z,8.06
2019-05-01T00:32:31.048Z,8.07
2019-05-01T00:33:31.024Z,8.14
2019-05-01T00:34:31.016Z,8.10
2019-05-01T00:35:31.016Z,8.13
2019-05-01T00:36:30.994Z,8.18
2019-05-01T00:37:31.012Z,8.22
2019-05-01T00:38:30.984Z,8.10
2019-05-01T00:39:30.969Z,8.12
2019-05-01T00:40:30.950Z,8.06
2019-05-01T00:41:30.955Z,8.04
2019-05-01T00:42:30.941Z,8.03
2019-05-01T00:43:30.924Z,8.04
2019-05-01T00:44:30.916Z,8.06
2019-05-01T00:45:30.902Z,8.09
2019-05-01T00:46:30.889Z,8.06
2019-05-01T00:47:30.892Z,8.03
2019-05-01T00:48:30.867Z,8.04
2019-05-01T00:49:30.862Z,7.96
2019-05-01T00:50:30.901Z,7.99
2019-05-01T00:51:30.854Z,7.95
2019-05-01T00:52:31.018Z,7.94
2019-05-01T00:53:30.819Z,7.94
2019-05-01T00:54:30.814Z,7.91
2019-05-01T00:55:30.823Z,7.88
2019-05-01T00:56:30.785Z,7.88
2019-05-01T00:57:30.793Z,7.85
2019-05-01T00:58:30.775Z,7.76
2019-05-01T00:59:30.753Z,7.77
2019-05-01T01:00:42.558Z,7.82
2019-05-01T01:01:31.736Z,7.79
2019-05-01T01:02:30.749Z,7.74
2019-05-01T01:03:30.731Z,7.73
2019-05-01T01:04:30.701Z,7.70
2019-05-01T01:05:30.777Z,7.70
2019-05-01T01:06:30.685Z,7.69
2019-05-01T01:07:30.669Z,7.70
2019-05-01T01:08:30.676Z,7.69
2019-05-01T01:09:30.651Z,7.63
2019-05-01T01:10:30.639Z,7.63
2019-05-01T01:11:30.630Z,7.69
2019-05-01T01:12:30.616Z,7.60
2019-05-01T01:13:30.623Z,7.62
2019-05-01T01:14:30.598Z,7.69
2019-05-01T01:15:30.599Z,7.66
2019-05-01T01:16:30.595Z,7.62
2019-05-01T01:17:30.580Z,7.58
2019-05-01T01:18:30.569Z,7.66
2019-05-01T01:19:30.555Z,7.60
2019-05-01T01:20:30.546Z,7.57
2019-05-01T01:21:30.528Z,7.58
2019-05-01T01:22:30.542Z,7.51
2019-05-01T01:23:30.515Z,7.55
2019-05-01T01:24:30.497Z,7.48
2019-05-01T01:25:30.481Z,7.57
2019-05-01T01:26:30.480Z,7.48
2019-05-01T01:27:30.463Z,7.47
2019-05-01T01:28:30.462Z,7.52
2019-05-01T01:29:30.438Z,7.50
2019-05-01T01:30:30.428Z,7.48
2019-05-01T01:31:30.419Z,7.47
2019-05-01T01:32:30.423Z,7.51
2019-05-01T01:33:30.428Z,7.52
2019-05-01T01:34:30.394Z,7.54
2019-05-01T01:35:30.415Z,7.55
2019-05-01T01:36:30.366Z,7.54
2019-05-01T01:37:30.367Z,7.48
2019-05-01T01:38:30.358Z,7.47
2019-05-01T01:39:30.334Z,7.44
2019-05-01T01:40:30.361Z,7.44
2019-05-01T01:41:30.313Z,7.47
2019-05-01T01:42:30.303Z,7.45
2019-05-01T01:43:30.304Z,7.39
2019-05-01T01:44:30.291Z,7.44
2019-05-01T01:45:30.273Z,7.50
2019-05-01T01:46:30.265Z,7.47
2019-05-01T01:47:30.252Z,7.48
2019-05-01T01:48:30.263Z,7.33
2019-05-01T01:49:30.230Z,7.36
2019-05-01T01:50:30.225Z,7.44
2019-05-01T01:51:30.225Z,7.51
2019-05-01T01:52:30.202Z,7.44
2019-05-01T01:53:30.206Z,7.36
2019-05-01T01:54:30.195Z,7.27
2019-05-01T01:55:30.187Z,7.23
2019-05-01T01:56:30.159Z,7.30
2019-05-01T01:57:30.146Z,7.37
2019-05-01T01:58:30.147Z,7.24
2019-05-01T01:59:30.132Z,7.21
2019-05-01T02:00:30.124Z,7.24
2019-05-01T02:01:30.106Z,7.32
2019-05-01T02:02:30.105Z,7.23
2019-05-01T02:03:30.091Z,7.27
2019-05-01T02:04:30.090Z,7.24
2019-05-01T02:05:30.063Z,7.24
2019-05-01T02:06:30.087Z,7.30
2019-05-01T02:07:30.048Z,7.18
2019-05-01T02:08:30.053Z,7.19
2019-05-01T02:09:30.032Z,7.21
2019-05-01T02:10:42.315Z,7.15
2019-05-01T02:11:31.006Z,7.19
2019-05-01T02:12:29.989Z,7.19
2019-05-01T02:13:29.984Z,7.15
2019-05-01T02:14:29.980Z,7.24
2019-05-01T02:15:29.976Z,7.16
2019-05-01T02:16:29.949Z,7.21
2019-05-01T02:17:29.942Z,7.19
2019-05-01T02:18:29.926Z,7.26
2019-05-01T02:19:29.945Z,7.19
2019-05-01T02:20:29.911Z,7.19
2019-05-01T02:21:29.898Z,7.21
2019-05-01T02:22:29.898Z,7.04
2019-05-01T02:23:29.875Z,7.04
2019-05-01T02:24:29.882Z,7.12
2019-05-01T02:25:29.874Z,7.04
2019-05-01T02:26:29.845Z,7.01
2019-05-01T02:27:29.840Z,7.09
2019-05-01T02:28:29.832Z,7.05
2019-05-01T02:29:29.825Z,7.04
2019-05-01T02:30:29.800Z,7.05
2019-05-01T02:31:29.854Z,6.97
2019-05-01T02:32:29.814Z,6.96
2019-05-01T02:33:29.774Z,6.93
2019-05-01T02:34:29.775Z,6.94
2019-05-01T02:35:30.438Z,6.87
2019-05-01T02:36:29.739Z,6.87
2019-05-01T02:37:29.727Z,6.89
2019-05-01T02:38:29.716Z,6.86
2019-05-01T02:39:29.728Z,6.90
2019-05-01T02:40:29.697Z,6.87
2019-05-01T02:41:29.685Z,6.91
2019-05-01T02:42:29.692Z,6.87
2019-05-01T02:43:29.663Z,6.90
2019-05-01T02:44:29.683Z,6.94
2019-05-01T02:45:29.642Z,6.89
2019-05-01T02:46:29.638Z,6.87
2019-05-01T02:47:29.629Z,6.91
2019-05-01T02:48:29.612Z,6.94
2019-05-01T02:49:29.622Z,6.89
2019-05-01T02:50:29.597Z,6.99
2019-05-01T02:51:29.591Z,6.91
2019-05-01T02:52:29.568Z,6.91
2019-05-01T02:53:29.561Z,6.87
2019-05-01T02:54:29.583Z,6.89
2019-05-01T02:55:29.543Z,6.93
2019-05-01T02:56:29.537Z,6.91
2019-05-01T02:57:29.530Z,6.89
2019-05-01T02:58:29.512Z,6.83
2019-05-01T02:59:29.526Z,6.91
2019-05-01T03:00:29.490Z,6.83
2019-05-01T03:01:45.429Z,6.81
2019-05-01T03:02:30.462Z,6.83
2019-05-01T03:03:29.468Z,6.81
2019-05-01T03:04:29.454Z,6.83
2019-05-01T03:05:29.443Z,6.83
2019-05-01T03:06:29.438Z,6.83
2019-05-01T03:07:29.423Z,6.86
2019-05-01T03:08:29.405Z,6.69
2019-05-01T03:09:29.406Z,6.75
2019-05-01T03:10:29.398Z,6.89
2019-05-01T03:11:29.375Z,6.75
2019-05-01T03:12:29.361Z,6.79
2019-05-01T03:13:29.365Z,6.75
2019-05-01T03:14:29.361Z,6.78
2019-05-01T03:15:29.347Z,6.72
2019-05-01T03:16:29.322Z,6.87
2019-05-01T03:17:29.323Z,6.68
2019-05-01T03:18:29.317Z,6.78
2019-05-01T03:19:29.292Z,6.81
2019-05-01T03:20:29.288Z,6.73
2019-05-01T03:21:29.270Z,6.79
2019-05-01T03:22:29.254Z,6.73
2019-05-01T03:23:29.249Z,6.72
2019-05-01T03:24:29.249Z,6.71
2019-05-01T03:25:29.234Z,6.60
2019-05-01T03:26:29.213Z,6.72
2019-05-01T03:27:29.204Z,6.58
2019-05-01T03:28:29.201Z,6.65
2019-05-01T03:29:29.184Z,6.60
2019-05-01T03:30:29.205Z,6.63
2019-05-01T03:31:29.169Z,6.55
2019-05-01T03:32:29.162Z,6.55
2019-05-01T03:33:29.143Z,6.57
2019-05-01T03:34:29.147Z,6.57
2019-05-01T03:35:29.148Z,6.53
2019-05-01T03:36:29.121Z,6.61
2019-05-01T03:37:29.097Z,6.48
2019-05-01T03:38:29.085Z,6.54
2019-05-01T03:39:29.100Z,6.43
2019-05-01T03:40:29.065Z,6.48
2019-05-01T03:41:29.058Z,6.46
2019-05-01T03:42:29.068Z,6.48
2019-05-01T03:43:29.043Z,6.54
2019-05-01T03:44:29.030Z,6.42
2019-05-01T03:45:29.023Z,6.43
2019-05-01T03:46:29.011Z,6.42
2019-05-01T03:47:28.992Z,6.42
2019-05-01T03:48:28.994Z,6.42
2019-05-01T03:49:28.981Z,6.39
2019-05-01T03:50:28.961Z,6.38
2019-05-01T03:51:28.966Z,6.35
2019-05-01T03:52:28.961Z,6.42
2019-05-01T03:53:28.934Z,6.30
2019-05-01T03:54:28.937Z,6.40
2019-05-01T03:55:28.913Z,6.33
2019-05-01T03:56:28.928Z,6.32
2019-05-01T03:57:28.894Z,6.40
2019-05-01T03:58:28.879Z,6.30
2019-05-01T03:59:28.919Z,6.24
2019-05-01T04:00:28.858Z,6.21
2019-05-01T04:01:28.872Z,6.25
2019-05-01T04:02:33.739Z,6.28
2019-05-01T04:03:29.838Z,6.16
2019-05-01T04:04:28.836Z,6.27
2019-05-01T04:05:28.882Z,6.24
2019-05-01T04:06:28.804Z,6.24
2019-05-01T04:07:28.792Z,6.25
2019-05-01T04:08:28.780Z,6.17
2019-05-01T04:09:28.766Z,6.25
2019-05-01T04:10:28.783Z,6.25
2019-05-01T04:11:28.765Z,6.14
2019-05-01T04:12:28.742Z,6.16
2019-05-01T04:13:28.721Z,6.19
2019-05-01T04:14:28.723Z,6.14
2019-05-01T04:15:28.703Z,6.24
2019-05-01T04:16:28.711Z,6.17
2019-05-01T04:17:28.692Z,6.24
2019-05-01T04:18:28.683Z,6.17
2019-05-01T04:19:28.666Z,6.14
2019-05-01T04:20:28.646Z,6.16
2019-05-01T04:21:28.657Z,6.17
2019-05-01T04:22:28.732Z,6.24
2019-05-01T04:23:28.619Z,6.06
2019-05-01T04:24:28.606Z,6.17
2019-05-01T04:25:28.594Z,6.11
2019-05-01T04:26:28.605Z,6.10
2019-05-01T04:27:28.601Z,6.27
2019-05-01T04:28:28.576Z,6.13
2019-05-01T04:29:28.557Z,6.16
2019-05-01T04:30:28.544Z,6.13
2019-05-01T04:31:28.531Z,6.27
2019-05-01T04:32:28.547Z,6.16
2019-05-01T04:33:28.511Z,6.13
2019-05-01T04:34:28.513Z,6.16
2019-05-01T04:35:28.502Z,6.13
2019-05-01T04:36:28.481Z,6.13
2019-05-01T04:37:28.481Z,6.11
2019-05-01T04:38:28.489Z,6.14
2019-05-01T04:39:28.449Z,6.11
2019-05-01T04:40:28.442Z,6.13
2019-05-01T04:41:28.433Z,6.11
2019-05-01T04:42:28.442Z,6.10
2019-05-01T04:43:28.419Z,6.11
2019-05-01T04:44:28.411Z,6.14
2019-05-01T04:45:28.397Z,6.20
2019-05-01T04:46:28.381Z,6.17
2019-05-01T04:47:28.379Z,6.19
2019-05-01T04:48:28.363Z,6.11
2019-05-01T04:49:28.363Z,6.17
2019-05-01T04:50:28.350Z,6.05
2019-05-01T04:51:28.333Z,6.16
2019-05-01T04:52:28.330Z,6.21
2019-05-01T04:53:28.312Z,6.10
2019-05-01T04:54:28.309Z,6.16
2019-05-01T04:55:28.280Z,6.14
2019-05-01T04:56:28.278Z,6.21
2019-05-01T04:57:28.293Z,6.21
2019-05-01T04:58:28.256Z,6.19
2019-05-01T04:59:28.239Z,6.08
2019-05-01T05:00:28.230Z,6.17
2019-05-01T05:01:28.218Z,6.17
2019-05-01T05:02:28.239Z,6.20
2019-05-01T05:03:28.210Z,6.21
2019-05-01T05:04:28.186Z,6.20
2019-05-01T05:05:28.193Z,6.30
2019-05-01T05:06:28.170Z,6.24
2019-05-01T05:07:28.179Z,6.28
2019-05-01T05:08:28.154Z,6.33
2019-05-01T05:09:28.139Z,6.36
2019-05-01T05:10:28.122Z,6.42
2019-05-01T05:11:28.120Z,6.36
2019-05-01T05:12:28.100Z,6.38
2019-05-01T05:13:28.109Z,6.43
2019-05-01T05:14:28.081Z,6.50
2019-05-01T05:15:28.088Z,6.46
2019-05-01T05:16:28.080Z,6.50
2019-05-01T05:17:28.064Z,6.42
2019-05-01T05:18:28.057Z,6.48
2019-05-01T05:19:28.047Z,6.43
2019-05-01T05:20:28.017Z,6.46
2019-05-01T05:21:28.018Z,6.53
2019-05-01T05:22:27.996Z,6.45
2019-05-01T05:23:28.003Z,6.54
2019-05-01T05:24:27.977Z,6.53
2019-05-01T05:25:27.980Z,6.53
2019-05-01T05:26:27.959Z,6.53
2019-05-01T05:27:27.948Z,6.55
2019-05-01T05:28:27.952Z,6.50
2019-05-01T05:29:27.929Z,6.55
2019-05-01T05:30:27.925Z,6.55
2019-05-01T05:31:27.932Z,6.61
2019-05-01T05:32:27.902Z,6.57
2019-05-01T05:33:27.922Z,6.61
2019-05-01T05:34:27.873Z,6.64
2019-05-01T05:35:27.883Z,6.68
2019-05-01T05:36:27.851Z,6.68
2019-05-01T05:37:27.839Z,6.79
2019-05-01T05:38:27.874Z,6.76
2019-05-01T05:39:27.817Z,6.75
2019-05-01T05:40:27.817Z,6.76
2019-05-01T05:41:27.798Z,6.81
2019-05-01T05:42:27.792Z,6.86
2019-05-01T05:43:27.796Z,6.81
2019-05-01T05:44:27.767Z,6.79
2019-05-01T05:45:27.758Z,6.86
2019-05-01T05:46:27.744Z,6.78
2019-05-01T05:47:27.737Z,6.83
2019-05-01T05:48:27.740Z,6.82
2019-05-01T05:49:27.729Z,6.90
2019-05-01T05:50:27.704Z,6.93
2019-05-01T05:51:27.693Z,6.93
2019-05-01T05:52:27.683Z,6.87
2019-05-01T05:53:27.768Z,6.97
2019-05-01T05:54:27.670Z,6.93
2019-05-01T05:55:27.675Z,6.96
2019-05-01T05:56:27.648Z,6.97
2019-05-01T05:57:29.909Z,7.01
2019-05-01T05:58:27.628Z,6.97
2019-05-01T05:59:27.644Z,7.00
2019-05-01T06:00:27.602Z,7.08
2019-05-01T06:01:27.589Z,7.04
2019-05-01T06:02:27.578Z,7.07
2019-05-01T06:03:31.374Z,7.00
2019-05-01T06:04:27.569Z,7.18
2019-05-01T06:05:27.550Z,7.21
2019-05-01T06:06:27.535Z,7.12
2019-05-01T06:07:27.524Z,7.18
2019-05-01T06:08:27.544Z,7.11
2019-05-01T06:09:27.525Z,7.18
2019-05-01T06:10:27.493Z,7.23
2019-05-01T06:11:29.735Z,7.24
2019-05-01T06:12:28.492Z,7.23
2019-05-01T06:13:27.460Z,7.33
2019-05-01T06:14:31.312Z,7.34
2019-05-01T06:15:28.457Z,7.45
2019-05-01T06:16:27.429Z,7.37
2019-05-01T06:17:28.488Z,7.44
2019-05-01T06:18:27.408Z,7.44
2019-05-01T06:19:27.436Z,7.47
2019-05-01T06:20:27.680Z,7.52
2019-05-01T06:21:27.380Z,7.54
2019-05-01T06:22:27.366Z,7.60
2019-05-01T06:23:27.359Z,7.60
2019-05-01T06:24:27.552Z,7.58
2019-05-01T06:25:27.409Z,7.60
2019-05-01T06:26:27.377Z,7.58
2019-05-01T06:27:27.314Z,7.62
2019-05-01T06:28:29.732Z,7.67
2019-05-01T06:29:30.957Z,7.66
2019-05-01T06:30:28.296Z,7.66
2019-05-01T06:31:27.275Z,7.67
2019-05-01T06:32:28.754Z,7.73
2019-05-01T06:33:28.264Z,7.74
2019-05-01T06:34:28.767Z,7.89
2019-05-01T06:35:27.233Z,7.86
2019-05-01T06:36:27.533Z,7.89
2019-05-01T06:37:27.301Z,7.95
2019-05-01T06:38:27.222Z,7.88
2019-05-01T06:39:27.188Z,7.92
2019-05-01T06:40:27.201Z,7.96
2019-05-01T06:41:28.629Z,8.00
2019-05-01T06:42:28.164Z,8.13
2019-05-01T06:43:27.324Z,8.12
2019-05-01T06:44:27.135Z,8.10
2019-05-01T06:45:27.139Z,8.17
2019-05-01T06:46:28.946Z,8.24
2019-05-01T06:47:27.118Z,8.18
2019-05-01T06:48:27.106Z,8.27
2019-05-01T06:49:29.429Z,8.31
2019-05-01T06:50:27.094Z,8.31
2019-05-01T06:51:27.066Z,8.31
2019-05-01T06:52:29.251Z,8.39
2019-05-01T06:53:27.046Z,8.42
2019-05-01T06:54:27.032Z,8.43
2019-05-01T06:55:28.785Z,8.32
2019-05-01T06:56:27.008Z,8.54
2019-05-01T06:57:27.001Z,8.49
2019-05-01T06:58:27.006Z,8.54
2019-05-01T06:59:31.388Z,8.57
2019-05-01T07:00:27.987Z,8.63
2019-05-01T07:01:26.963Z,8.64
2019-05-01T07:02:30.000Z,8.75
2019-05-01T07:03:27.976Z,8.78
2019-05-01T07:04:26.925Z,8.71
2019-05-01T07:05:26.927Z,8.80
2019-05-01T07:06:31.140Z,8.91
2019-05-01T07:07:27.911Z,8.89
2019-05-01T07:08:29.570Z,8.91
2019-05-01T07:09:28.448Z,9.01
2019-05-01T07:10:31.442Z,8.96
2019-05-01T07:11:27.875Z,9.12
2019-05-01T07:12:28.246Z,9.15
2019-05-01T07:13:26.840Z,9.04
2019-05-01T07:14:26.842Z,9.10
2019-05-01T07:15:28.418Z,9.17
2019-05-01T07:16:26.976Z,9.23
2019-05-01T07:17:26.813Z,9.26
2019-05-01T07:18:29.056Z,9.23
2019-05-01T07:19:26.772Z,9.34
2019-05-01T07:20:26.824Z,9.35
2019-05-01T07:21:27.781Z,9.37
2019-05-01T07:22:26.745Z,9.32
2019-05-01T07:23:26.736Z,9.48
2019-05-01T07:24:28.034Z,9.49
2019-05-01T07:25:26.709Z,9.52
2019-05-01T07:26:26.723Z,9.58
2019-05-01T07:27:26.705Z,9.56
2019-05-01T07:28:28.842Z,9.67
2019-05-01T07:29:27.665Z,9.58
2019-05-01T07:30:26.656Z,9.68
2019-05-01T07:31:30.981Z,9.73
2019-05-01T07:32:27.643Z,9.80
2019-05-01T07:33:26.634Z,9.75
2019-05-01T07:34:27.465Z,9.85
2019-05-01T07:35:26.601Z,9.91
2019-05-01T07:36:26.602Z,9.93
2019-05-01T07:37:27.792Z,9.91
2019-05-01T07:38:26.571Z,9.99
2019-05-01T07:39:26.558Z,9.98
2019-05-01T07:40:29.183Z,10.02
2019-05-01T07:41:26.583Z,10.07
2019-05-01T07:42:26.553Z,10.11
2019-05-01T07:43:26.512Z,10.07
2019-05-01T07:44:30.048Z,10.10
2019-05-01T07:45:27.490Z,10.26
2019-05-01T07:46:26.489Z,10.20
2019-05-01T07:47:30.534Z,10.26
2019-05-01T07:48:27.462Z,10.31
2019-05-01T07:49:26.448Z,10.38
2019-05-01T07:50:31.612Z,10.35
2019-05-01T07:51:32.773Z,10.44
2019-05-01T08:00:27.472Z,10.86
2019-05-01T08:01:27.464Z,10.81
2019-05-01T08:02:30.954Z,10.86
2019-05-01T08:03:28.436Z,10.94
2019-05-01T08:04:35.962Z,11.01
2019-05-01T08:05:28.416Z,11.05
2019-05-01T08:06:27.425Z,11.06
2019-05-01T08:07:27.808Z,11.05
2019-05-01T08:08:27.388Z,11.16
2019-05-01T08:09:27.379Z,11.09
2019-05-01T08:10:30.825Z,11.12
2019-05-01T08:11:28.379Z,11.16
2019-05-01T08:12:27.342Z,11.21
2019-05-01T08:13:30.591Z,11.31
2019-05-01T08:14:28.342Z,11.30
2019-05-01T08:15:32.301Z,11.35
2019-05-01T08:16:28.312Z,11.42
2019-05-01T08:17:27.292Z,11.39
2019-05-01T08:18:27.923Z,11.41
2019-05-01T08:19:27.267Z,11.51
2019-05-01T08:20:27.272Z,11.45
2019-05-01T08:21:27.567Z,11.53
2019-05-01T08:22:27.236Z,11.56
2019-05-01T08:23:27.229Z,11.57
2019-05-01T08:24:27.214Z,11.62
2019-05-01T08:25:28.780Z,11.66
2019-05-01T08:26:28.217Z,11.74
2019-05-01T08:27:27.182Z,11.72
2019-05-01T08:28:27.718Z,11.78
2019-05-01T08:29:27.162Z,11.72
2019-05-01T08:30:27.167Z,11.84
2019-05-01T08:31:27.788Z,11.78
2019-05-01T08:32:27.268Z,11.84
2019-05-01T08:33:27.119Z,11.77
2019-05-01T08:34:29.679Z,11.88
2019-05-01T08:35:27.117Z,11.94
2019-05-01T08:36:27.091Z,11.98
2019-05-01T08:37:27.290Z,12.00
2019-05-01T08:38:29.865Z,12.01
2019-05-01T08:39:28.054Z,12.07
2019-05-01T08:40:27.066Z,12.16
2019-05-01T08:41:31.690Z,12.13
2019-05-01T08:42:28.024Z,12.30
2019-05-01T08:43:27.013Z,12.29
2019-05-01T08:44:29.566Z,12.31
2019-05-01T08:45:27.019Z,12.33
2019-05-01T08:46:26.983Z,12.37
2019-05-01T08:47:27.774Z,12.33
2019-05-01T08:48:30.781Z,12.41
2019-05-01T08:49:27.952Z,12.54
2019-05-01T08:50:26.976Z,12.52
2019-05-01T08:51:30.140Z,12.59
2019-05-01T08:52:27.919Z,12.58
2019-05-01T08:53:26.907Z,12.63
2019-05-01T08:54:28.891Z,12.66
2019-05-01T08:55:27.884Z,12.70
2019-05-01T08:56:26.882Z,12.80
2019-05-01T08:57:32.446Z,12.84
2019-05-01T08:58:27.857Z,12.94
2019-05-01T08:59:26.843Z,12.89
2019-05-01T09:00:31.000Z,12.99
2019-05-01T09:01:27.827Z,12.98
2019-05-01T09:02:26.810Z,12.91
2019-05-01T09:03:26.800Z,13.10
2019-05-01T09:04:30.335Z,13.07
2019-05-01T09:05:30.033Z,13.16
2019-05-01T09:06:34.483Z,13.17
2019-05-01T09:07:27.787Z,13.21
2019-05-01T09:08:31.519Z,13.25
2019-05-01T09:09:27.764Z,13.32
2019-05-01T09:10:26.726Z,13.43
2019-05-01T09:11:26.719Z,13.43
2019-05-01T09:12:26.727Z,13.53
2019-05-01T09:13:26.696Z,13.50
2019-05-01T09:14:29.836Z,13.61
2019-05-01T09:15:27.673Z,13.69
2019-05-01T09:16:28.280Z,13.71
2019-05-01T09:17:26.667Z,13.68
2019-05-01T09:18:26.640Z,13.69
2019-05-01T09:19:26.685Z,13.79
2019-05-01T09:20:26.622Z,13.76
2019-05-01T09:21:26.611Z,13.98
2019-05-01T09:22:26.615Z,14.01
2019-05-01T09:23:26.589Z,13.93
2019-05-01T09:24:28.054Z,14.08
2019-05-01T09:25:26.572Z,14.05
2019-05-01T09:26:26.559Z,14.17
2019-05-01T09:27:29.607Z,14.12
2019-05-01T09:28:26.552Z,14.21
2019-05-01T09:29:26.524Z,14.31
2019-05-01T09:30:27.172Z,14.34
2019-05-01T09:31:26.506Z,14.42
2019-05-01T09:32:26.492Z,14.46
2019-05-01T09:33:30.816Z,14.41
2019-05-01T09:34:27.475Z,14.56
2019-05-01T09:35:26.502Z,14.64
2019-05-01T09:36:26.449Z,14.69
2019-05-01T09:37:26.439Z,14.78
2019-05-01T09:38:26.445Z,14.71
2019-05-01T09:39:26.416Z,14.75
2019-05-01T09:40:26.406Z,14.78
2019-05-01T09:41:37.598Z,14.79
2019-05-01T09:42:27.385Z,14.95
2019-05-01T09:43:26.403Z,14.98
2019-05-01T09:44:26.363Z,14.98
2019-05-01T09:45:26.364Z,15.09
2019-05-01T09:46:26.346Z,15.04
2019-05-01T09:47:26.331Z,15.19
2019-05-01T09:48:26.321Z,15.23
2019-05-01T09:49:26.313Z,15.35
2019-05-01T09:50:30.459Z,15.41
2019-05-01T09:51:27.288Z,15.41
2019-05-01T09:52:26.280Z,15.49
2019-05-01T09:53:29.710Z,15.44
2019-05-01T09:54:27.259Z,15.49
2019-05-01T09:55:26.246Z,15.58
2019-05-01T09:56:26.236Z,15.49
2019-05-01T09:57:26.230Z,15.62
2019-05-01T09:58:26.214Z,15.68
2019-05-01T09:59:26.211Z,15.73
2019-05-01T10:00:26.193Z,15.74
2019-05-01T10:01:31.700Z,15.66
2019-05-01T10:02:27.170Z,15.64
2019-05-01T10:03:26.163Z,15.64
2019-05-01T10:04:30.298Z,15.74
2019-05-01T10:05:29.059Z,15.84
2019-05-01T10:06:26.137Z,15.88
2019-05-01T10:07:29.114Z,16.04
2019-05-01T10:08:26.113Z,16.13
2019-05-01T10:09:26.907Z,16.17
2019-05-01T10:10:29.314Z,16.25
2019-05-01T10:11:26.077Z,16.29
2019-05-01T10:12:26.075Z,16.27
2019-05-01T10:13:26.066Z,16.40
2019-05-01T10:14:26.043Z,16.36
2019-05-01T10:15:26.065Z,16.36
2019-05-01T10:16:26.024Z,16.45
2019-05-01T10:17:26.027Z,16.47
2019-05-01T10:18:26.026Z,16.50
2019-05-01T10:19:25.991Z,16.52
2019-05-01T10:20:25.980Z,16.51
2019-05-01T10:21:27.106Z,16.52
2019-05-01T10:22:25.958Z,16.50
2019-05-01T10:23:25.948Z,16.63
2019-05-01T10:24:26.100Z,16.63
2019-05-01T10:25:25.940Z,16.66
2019-05-01T10:26:25.929Z,16.70
2019-05-01T10:27:25.906Z,16.81
2019-05-01T10:28:25.896Z,16.84
2019-05-01T10:29:27.583Z,16.99
2019-05-01T10:30:25.877Z,16.92
2019-05-01T10:31:25.900Z,16.96
2019-05-01T10:32:25.881Z,16.99
2019-05-01T10:33:29.035Z,17.06
2019-05-01T10:34:26.840Z,17.21
2019-05-01T10:35:25.820Z,17.17
2019-05-01T10:36:25.808Z,17.27
2019-05-01T10:37:28.460Z,17.27
2019-05-01T10:38:26.787Z,17.27
2019-05-01T10:39:25.780Z,17.27
2019-05-01T10:40:26.948Z,17.43
2019-05-01T10:41:26.757Z,17.39
2019-05-01T10:42:25.760Z,17.43
2019-05-01T10:43:25.734Z,17.45
2019-05-01T10:44:25.726Z,17.42
2019-05-01T10:45:25.714Z,17.51
2019-05-01T10:46:25.703Z,17.45
2019-05-01T10:47:26.003Z,17.46
2019-05-01T10:48:25.685Z,17.46
2019-05-01T10:49:25.673Z,17.58
2019-05-01T10:50:25.661Z,17.54
2019-05-01T10:51:25.651Z,17.66
2019-05-01T10:52:25.641Z,17.58
2019-05-01T10:53:25.643Z,17.63
2019-05-01T10:54:25.624Z,17.70
2019-05-01T10:55:25.610Z,17.77
2019-05-01T10:56:25.600Z,17.68
2019-05-01T10:57:25.592Z,17.81
2019-05-01T10:58:25.604Z,17.86
2019-05-01T10:59:25.567Z,17.92
2019-05-01T11:00:25.578Z,17.92
2019-05-01T11:01:25.546Z,18.05
2019-05-01T11:02:25.535Z,18.02
2019-05-01T11:03:25.524Z,18.19
2019-05-01T11:04:25.532Z,18.11
2019-05-01T11:05:25.504Z,18.17
2019-05-01T11:06:25.497Z,18.28
2019-05-01T11:07:25.487Z,18.20
2019-05-01T11:08:25.471Z,18.31
2019-05-01T11:09:25.480Z,18.26
2019-05-01T11:10:25.452Z,18.31
2019-05-01T11:11:25.458Z,18.34
2019-05-01T11:12:25.431Z,18.47
2019-05-01T11:13:25.445Z,18.50
2019-05-01T11:14:25.440Z,18.59
2019-05-01T11:15:25.400Z,18.53
2019-05-01T11:16:25.388Z,18.53
2019-05-01T11:17:25.380Z,18.65
2019-05-01T11:18:25.366Z,18.64
2019-05-01T11:19:25.383Z,18.78
2019-05-01T11:20:25.347Z,18.90
2019-05-01T11:21:25.334Z,18.97
2019-05-01T11:22:25.331Z,18.96
2019-05-01T11:23:25.311Z,19.09
2019-05-01T11:24:25.303Z,19.16
2019-05-01T11:25:25.310Z,19.16
2019-05-01T11:26:25.280Z,19.20
2019-05-01T11:27:25.272Z,19.23
2019-05-01T11:28:25.258Z,19.25
2019-05-01T11:29:25.252Z,19.20
2019-05-01T11:30:25.430Z,19.31
2019-05-01T11:31:25.226Z,19.52
2019-05-01T11:32:25.219Z,19.55
2019-05-01T11:33:25.206Z,19.64
2019-05-01T11:34:25.197Z,19.61
2019-05-01T11:35:25.186Z,19.58
2019-05-01T11:36:25.185Z,19.79
2019-05-01T11:37:25.164Z,19.78
2019-05-01T11:38:25.152Z,19.82
2019-05-01T11:39:25.141Z,19.97
2019-05-01T11:40:25.150Z,19.95
2019-05-01T11:41:25.133Z,20.15
2019-05-01T11:42:25.110Z,20.16
2019-05-01T11:43:25.099Z,20.13
2019-05-01T11:44:25.088Z,20.26
2019-05-01T11:45:25.078Z,20.33
2019-05-01T11:46:25.086Z,20.41
2019-05-01T11:47:25.055Z,20.37
2019-05-01T11:48:29.994Z,20.51
2019-05-01T11:49:26.037Z,20.63
2019-05-01T11:50:25.025Z,20.76
2019-05-01T11:51:25.045Z,20.83
2019-05-01T11:52:25.007Z,20.87
2019-05-01T11:53:24.998Z,20.93
2019-05-01T11:54:24.984Z,21.18
2019-05-01T11:55:24.971Z,21.19
2019-05-01T11:56:24.966Z,21.30
2019-05-01T11:57:24.963Z,21.38
2019-05-01T11:58:24.939Z,21.49
2019-05-01T11:59:24.929Z,21.46
2019-05-01T12:00:24.923Z,21.40
2019-05-01T12:01:24.913Z,21.63
2019-05-01T12:02:24.911Z,21.71
2019-05-01T12:03:24.887Z,21.79
2019-05-01T12:04:24.877Z,21.71
2019-05-01T12:05:24.878Z,21.85
2019-05-01T12:06:24.861Z,21.86
2019-05-01T12:07:24.866Z,22.04
2019-05-01T12:08:24.834Z,22.01
2019-05-01T12:09:24.823Z,22.11
2019-05-01T12:10:24.813Z,22.23
2019-05-01T12:11:24.802Z,22.29
2019-05-01T12:12:24.804Z,22.39
2019-05-01T12:13:24.783Z,22.59
2019-05-01T12:14:24.770Z,22.64
2019-05-01T12:15:24.760Z,22.67
2019-05-01T12:16:24.748Z,22.75
2019-05-01T12:17:24.932Z,22.89
2019-05-01T12:18:24.728Z,23.16
2019-05-01T12:19:24.724Z,23.67
2019-05-01T12:20:24.708Z,24.36
2019-05-01T12:21:24.705Z,25.19
2019-05-01T12:22:24.688Z,26.09
2019-05-01T12:23:24.680Z,27.11
2019-05-01T12:24:24.670Z,28.17
2019-05-01T12:25:24.658Z,29.32
2019-05-01T12:26:24.648Z,30.26
2019-05-01T12:27:24.638Z,31.28
2019-05-01T12:28:24.643Z,32.14
2019-05-01T12:29:24.618Z,32.96
2019-05-01T12:30:24.609Z,33.81
2019-05-01T12:31:24.600Z,34.49
2019-05-01T12:32:24.590Z,35.22
2019-05-01T12:33:24.613Z,35.74
2019-05-01T12:34:24.575Z,35.96
2019-05-01T12:35:24.561Z,36.68
2019-05-01T12:36:35.682Z,37.18
2019-05-01T12:37:25.541Z,37.81
2019-05-01T12:38:24.532Z,38.52
2019-05-01T12:39:24.535Z,39.32
2019-05-01T12:40:24.515Z,39.94
2019-05-01T12:41:24.506Z,40.73
2019-05-01T12:42:24.496Z,41.69
2019-05-01T12:43:24.487Z,42.19
2019-05-01T12:44:24.491Z,41.66
2019-05-01T12:45:24.468Z,41.53
2019-05-01T12:46:24.459Z,41.73
2019-05-01T12:47:24.450Z,42.29
2019-05-01T12:48:24.457Z,42.77
2019-05-01T12:49:24.449Z,43.25
2019-05-01T12:50:24.426Z,43.48
2019-05-01T12:51:24.439Z,43.81
2019-05-01T12:52:24.423Z,44.15
2019-05-01T12:53:24.410Z,44.34
2019-05-01T12:54:24.431Z,44.35
2019-05-01T12:55:24.629Z,44.50
2019-05-01T12:56:24.418Z,44.98
2019-05-01T12:57:24.435Z,45.17
2019-05-01T12:58:24.460Z,45.34
2019-05-01T12:59:24.422Z,45.53
2019-05-01T13:00:24.381Z,45.79
2019-05-01T13:01:24.340Z,46.15
2019-05-01T13:02:24.339Z,46.26
2019-05-01T13:03:24.325Z,46.40
2019-05-01T13:04:24.313Z,46.64
2019-05-01T13:05:24.320Z,46.70
2019-05-01T13:06:24.297Z,46.68
2019-05-01T13:07:24.287Z,46.58
2019-05-01T13:08:24.280Z,46.56
2019-05-01T13:09:24.273Z,46.75
2019-05-01T13:10:24.305Z,47.21
2019-05-01T13:11:24.257Z,47.40
2019-05-01T13:12:24.247Z,47.78
2019-05-01T13:13:24.243Z,47.98
2019-05-01T13:14:24.235Z,48.04
2019-05-01T13:15:24.225Z,48.02